sensor_id;sensor_type;location;lat;lon;timestamp;temperature;humidity
5059;DHT22;2548;52.050;11.036;2023-09-12T00:00:53;17.60;99.90
5059;DHT22;2548;52.050;11.036;2023-09-12T00:03:29;17.60;99.90
5059;DHT22;2548;52.050;11.036;2023-09-12T00:05:59;17.60;99.90
5059;DHT22;2548;52.050;11.036;2023-09-12T00:08:27;17.60;99.90
5059;DHT22;2548;52.050;11.036;2023-09-12T00:11:04;17.70;99.90
5059;DHT22;2548;52.050;11.036;2023-09-12T00:13:32;17.60;99.90
5059;DHT22;2548;52.050;11.036;2023-09-12T00:16:01;17.60;99.90
5059;DHT22;2548;52.050;11.036;2023-09-12T00:18:29;17.60;99.90
5059;DHT22;2548;52.050;11.036;2023-09-12T00:20:59;17.60;99.90
5059;DHT22;2548;52.050;11.036;2023-09-12T00:23:27;17.60;99.90
5059;DHT22;2548;52.050;11.036;2023-09-12T00:25:55;17.60;99.90
5059;DHT22;2548;52.050;11.036;2023-09-12T00:28:22;17.60;99.90
5059;DHT22;2548;52.050;11.036;2023-09-12T00:30:51;17.60;99.90
5059;DHT22;2548;52.050;11.036;2023-09-12T00:33:25;17.60;99.90
5059;DHT22;2548;52.050;11.036;2023-09-12T00:35:56;17.70;99.90
5059;DHT22;2548;52.050;11.036;2023-09-12T00:38:24;17.70;99.90
5059;DHT22;2548;52.050;11.036;2023-09-12T00:40:54;17.70;99.90
5059;DHT22;2548;52.050;11.036;2023-09-12T00:43:21;17.60;99.90
5059;DHT22;2548;52.050;11.036;2023-09-12T00:45:52;17.60;99.90
5059;DHT22;2548;52.050;11.036;2023-09-12T00:48:20;17.50;99.90
5059;DHT22;2548;52.050;11.036;2023-09-12T00:50:54;17.50;99.90
5059;DHT22;2548;52.050;11.036;2023-09-12T00:53:25;17.50;99.90
5059;DHT22;2548;52.050;11.036;2023-09-12T00:56:03;17.50;99.90
5059;DHT22;2548;52.050;11.036;2023-09-12T00:58:31;17.40;99.90
5059;DHT22;2548;52.050;11.036;2023-09-12T01:00:58;17.50;99.90
5059;DHT22;2548;52.050;11.036;2023-09-12T01:03:26;17.50;99.90
5059;DHT22;2548;52.050;11.036;2023-09-12T01:06:01;17.40;99.90
5059;DHT22;2548;52.050;11.036;2023-09-12T01:08:29;17.40;99.90
5059;DHT22;2548;52.050;11.036;2023-09-12T01:10:57;17.30;99.90
5059;DHT22;2548;52.050;11.036;2023-09-12T01:13:28;17.20;99.90
5059;DHT22;2548;52.050;11.036;2023-09-12T01:15:56;17.20;99.90
5059;DHT22;2548;52.050;11.036;2023-09-12T01:18:23;17.20;99.90
5059;DHT22;2548;52.050;11.036;2023-09-12T01:21:10;17.30;99.90
5059;DHT22;2548;52.050;11.036;2023-09-12T01:23:58;17.40;99.90
5059;DHT22;2548;52.050;11.036;2023-09-12T01:26:44;17.50;99.90
5059;DHT22;2548;52.050;11.036;2023-09-12T01:29:18;17.50;99.90
5059;DHT22;2548;52.050;11.036;2023-09-12T01:31:47;17.60;99.90
5059;DHT22;2548;52.050;11.036;2023-09-12T01:34:25;17.60;99.90
5059;DHT22;2548;52.050;11.036;2023-09-12T01:36:58;17.60;99.90
5059;DHT22;2548;52.050;11.036;2023-09-12T01:39:26;17.60;99.90
5059;DHT22;2548;52.050;11.036;2023-09-12T01:41:54;17.60;99.90
5059;DHT22;2548;52.050;11.036;2023-09-12T01:44:27;17.60;99.90
5059;DHT22;2548;52.050;11.036;2023-09-12T01:46:58;17.60;99.90
5059;DHT22;2548;52.050;11.036;2023-09-12T01:49:36;17.60;99.90
5059;DHT22;2548;52.050;11.036;2023-09-12T01:52:04;17.60;99.90
5059;DHT22;2548;52.050;11.036;2023-09-12T01:54:36;17.50;99.90
5059;DHT22;2548;52.050;11.036;2023-09-12T01:57:08;17.40;99.90
5059;DHT22;2548;52.050;11.036;2023-09-12T01:59:37;17.40;99.90
5059;DHT22;2548;52.050;11.036;2023-09-12T02:02:05;17.40;99.90
5059;DHT22;2548;52.050;11.036;2023-09-12T02:04:34;17.50;99.90
5059;DHT22;2548;52.050;11.036;2023-09-12T02:07:02;17.40;99.90
5059;DHT22;2548;52.050;11.036;2023-09-12T02:09:30;17.40;99.90
5059;DHT22;2548;52.050;11.036;2023-09-12T02:11:57;17.40;99.90
5059;DHT22;2548;52.050;11.036;2023-09-12T02:14:25;17.40;99.90
5059;DHT22;2548;52.050;11.036;2023-09-12T02:17:01;17.40;99.90
5059;DHT22;2548;52.050;11.036;2023-09-12T02:19:35;17.40;99.90
5059;DHT22;2548;52.050;11.036;2023-09-12T02:22:08;17.40;99.90
5059;DHT22;2548;52.050;11.036;2023-09-12T02:24:36;17.30;99.90
5059;DHT22;2548;52.050;11.036;2023-09-12T02:27:04;17.30;99.90
5059;DHT22;2548;52.050;11.036;2023-09-12T02:29:39;17.30;99.90
5059;DHT22;2548;52.050;11.036;2023-09-12T02:32:08;17.10;99.90
5059;DHT22;2548;52.050;11.036;2023-09-12T02:34:35;17.00;99.90
5059;DHT22;2548;52.050;11.036;2023-09-12T02:37:03;16.80;99.90
5059;DHT22;2548;52.050;11.036;2023-09-12T02:39:34;16.60;99.90
5059;DHT22;2548;52.050;11.036;2023-09-12T02:42:01;16.50;99.90
5059;DHT22;2548;52.050;11.036;2023-09-12T02:44:29;16.50;99.90
5059;DHT22;2548;52.050;11.036;2023-09-12T02:46:59;16.40;99.90
5059;DHT22;2548;52.050;11.036;2023-09-12T02:49:34;16.40;99.90
5059;DHT22;2548;52.050;11.036;2023-09-12T02:52:05;16.40;99.90
5059;DHT22;2548;52.050;11.036;2023-09-12T02:54:38;16.40;99.90
5059;DHT22;2548;52.050;11.036;2023-09-12T02:57:08;16.40;99.90
5059;DHT22;2548;52.050;11.036;2023-09-12T02:59:42;16.40;99.90
5059;DHT22;2548;52.050;11.036;2023-09-12T03:02:10;16.40;99.90
5059;DHT22;2548;52.050;11.036;2023-09-12T03:04:39;16.50;99.90
5059;DHT22;2548;52.050;11.036;2023-09-12T03:07:06;16.60;99.90
5059;DHT22;2548;52.050;11.036;2023-09-12T03:09:34;16.70;99.90
5059;DHT22;2548;52.050;11.036;2023-09-12T03:12:04;16.80;99.90
5059;DHT22;2548;52.050;11.036;2023-09-12T03:14:32;16.80;99.90
5059;DHT22;2548;52.050;11.036;2023-09-12T03:16:59;16.90;99.90
5059;DHT22;2548;52.050;11.036;2023-09-12T03:19:27;16.90;99.90
5059;DHT22;2548;52.050;11.036;2023-09-12T03:21:56;16.90;99.90
5059;DHT22;2548;52.050;11.036;2023-09-12T03:24:24;16.90;99.90
5059;DHT22;2548;52.050;11.036;2023-09-12T03:26:57;16.90;99.90
5059;DHT22;2548;52.050;11.036;2023-09-12T03:29:25;16.90;99.90
5059;DHT22;2548;52.050;11.036;2023-09-12T03:31:53;16.90;99.90
5059;DHT22;2548;52.050;11.036;2023-09-12T03:34:20;16.90;99.90
5059;DHT22;2548;52.050;11.036;2023-09-12T03:36:48;16.90;99.90
5059;DHT22;2548;52.050;11.036;2023-09-12T03:39:17;16.90;99.90
5059;DHT22;2548;52.050;11.036;2023-09-12T03:41:50;16.90;99.90
5059;DHT22;2548;52.050;11.036;2023-09-12T03:44:18;16.90;99.90
5059;DHT22;2548;52.050;11.036;2023-09-12T03:46:45;17.00;99.90
5059;DHT22;2548;52.050;11.036;2023-09-12T03:49:13;17.00;99.90
5059;DHT22;2548;52.050;11.036;2023-09-12T03:51:40;17.00;99.90
5059;DHT22;2548;52.050;11.036;2023-09-12T03:54:08;17.00;99.90
5059;DHT22;2548;52.050;11.036;2023-09-12T03:56:37;17.00;99.90
5059;DHT22;2548;52.050;11.036;2023-09-12T03:59:04;17.10;99.90
5059;DHT22;2548;52.050;11.036;2023-09-12T04:01:39;17.10;99.90
5059;DHT22;2548;52.050;11.036;2023-09-12T04:04:06;17.10;99.90
5059;DHT22;2548;52.050;11.036;2023-09-12T04:06:34;17.20;99.90
5059;DHT22;2548;52.050;11.036;2023-09-12T04:09:04;17.20;99.90
5059;DHT22;2548;52.050;11.036;2023-09-12T04:11:33;17.20;99.90
5059;DHT22;2548;52.050;11.036;2023-09-12T04:14:02;17.20;99.90
5059;DHT22;2548;52.050;11.036;2023-09-12T04:16:30;17.20;99.90
5059;DHT22;2548;52.050;11.036;2023-09-12T04:18:57;17.20;99.90
5059;DHT22;2548;52.050;11.036;2023-09-12T04:21:25;17.10;99.90
5059;DHT22;2548;52.050;11.036;2023-09-12T04:23:52;17.00;99.90
5059;DHT22;2548;52.050;11.036;2023-09-12T04:26:22;16.90;99.90
5059;DHT22;2548;52.050;11.036;2023-09-12T04:28:49;16.80;99.90
5059;DHT22;2548;52.050;11.036;2023-09-12T04:31:18;16.80;99.90
5059;DHT22;2548;52.050;11.036;2023-09-12T04:33:50;16.80;99.90
5059;DHT22;2548;52.050;11.036;2023-09-12T04:36:18;16.90;99.90
5059;DHT22;2548;52.050;11.036;2023-09-12T04:38:46;17.00;99.90
5059;DHT22;2548;52.050;11.036;2023-09-12T04:41:14;17.10;99.90
5059;DHT22;2548;52.050;11.036;2023-09-12T04:43:49;17.00;99.90
5059;DHT22;2548;52.050;11.036;2023-09-12T04:46:18;17.10;99.90
5059;DHT22;2548;52.050;11.036;2023-09-12T04:48:49;17.10;99.90
5059;DHT22;2548;52.050;11.036;2023-09-12T04:51:17;17.10;99.90
5059;DHT22;2548;52.050;11.036;2023-09-12T04:53:44;17.10;99.90
5059;DHT22;2548;52.050;11.036;2023-09-12T04:56:14;17.10;99.90
5059;DHT22;2548;52.050;11.036;2023-09-12T04:58:41;17.20;99.90
5059;DHT22;2548;52.050;11.036;2023-09-12T05:01:12;17.10;99.90
5059;DHT22;2548;52.050;11.036;2023-09-12T05:03:41;17.10;99.90
5059;DHT22;2548;52.050;11.036;2023-09-12T05:06:09;17.10;99.90
5059;DHT22;2548;52.050;11.036;2023-09-12T05:08:36;17.20;99.90
5059;DHT22;2548;52.050;11.036;2023-09-12T05:11:04;17.20;99.90
5059;DHT22;2548;52.050;11.036;2023-09-12T05:13:32;17.20;99.90
5059;DHT22;2548;52.050;11.036;2023-09-12T05:16:00;17.20;99.90
5059;DHT22;2548;52.050;11.036;2023-09-12T05:18:27;17.20;99.90
5059;DHT22;2548;52.050;11.036;2023-09-12T05:20:56;17.20;99.90
5059;DHT22;2548;52.050;11.036;2023-09-12T05:23:24;17.20;99.90
5059;DHT22;2548;52.050;11.036;2023-09-12T05:25:51;17.20;99.90
5059;DHT22;2548;52.050;11.036;2023-09-12T05:28:19;17.20;99.90
5059;DHT22;2548;52.050;11.036;2023-09-12T05:30:49;17.30;99.90
5059;DHT22;2548;52.050;11.036;2023-09-12T05:33:16;17.30;99.90
5059;DHT22;2548;52.050;11.036;2023-09-12T05:35:44;17.40;99.90
5059;DHT22;2548;52.050;11.036;2023-09-12T05:38:16;17.50;99.90
5059;DHT22;2548;52.050;11.036;2023-09-12T05:40:53;17.50;99.90
5059;DHT22;2548;52.050;11.036;2023-09-12T05:43:21;17.60;99.90
5059;DHT22;2548;52.050;11.036;2023-09-12T05:45:52;17.70;99.90
5059;DHT22;2548;52.050;11.036;2023-09-12T05:48:23;17.70;99.90
5059;DHT22;2548;52.050;11.036;2023-09-12T05:50:51;17.70;99.90
5059;DHT22;2548;52.050;11.036;2023-09-12T05:53:26;17.80;99.90
5059;DHT22;2548;52.050;11.036;2023-09-12T05:55:53;17.80;99.90
5059;DHT22;2548;52.050;11.036;2023-09-12T05:58:21;17.90;99.90
5059;DHT22;2548;52.050;11.036;2023-09-12T06:00:49;18.00;99.90
5059;DHT22;2548;52.050;11.036;2023-09-12T06:03:19;18.10;99.90
5059;DHT22;2548;52.050;11.036;2023-09-12T06:05:50;18.10;99.90
5059;DHT22;2548;52.050;11.036;2023-09-12T06:08:17;18.20;99.90
5059;DHT22;2548;52.050;11.036;2023-09-12T06:10:48;18.20;99.90
5059;DHT22;2548;52.050;11.036;2023-09-12T06:13:19;18.30;99.90
5059;DHT22;2548;52.050;11.036;2023-09-12T06:15:50;18.40;99.90
5059;DHT22;2548;52.050;11.036;2023-09-12T06:18:17;18.50;99.90
5059;DHT22;2548;52.050;11.036;2023-09-12T06:20:46;18.50;99.90
5059;DHT22;2548;52.050;11.036;2023-09-12T06:23:13;18.60;99.90
5059;DHT22;2548;52.050;11.036;2023-09-12T06:25:40;18.70;99.90
5059;DHT22;2548;52.050;11.036;2023-09-12T06:28:12;18.70;99.90
5059;DHT22;2548;52.050;11.036;2023-09-12T06:30:57;18.90;99.90
5059;DHT22;2548;52.050;11.036;2023-09-12T06:33:25;19.00;99.90
5059;DHT22;2548;52.050;11.036;2023-09-12T06:35:53;19.10;99.90
5059;DHT22;2548;52.050;11.036;2023-09-12T06:38:21;19.20;99.90
5059;DHT22;2548;52.050;11.036;2023-09-12T06:40:48;19.30;99.90
5059;DHT22;2548;52.050;11.036;2023-09-12T06:43:20;19.40;99.90
5059;DHT22;2548;52.050;11.036;2023-09-12T06:45:49;19.50;99.90
5059;DHT22;2548;52.050;11.036;2023-09-12T06:48:17;19.50;99.90
5059;DHT22;2548;52.050;11.036;2023-09-12T06:50:47;19.60;99.90
5059;DHT22;2548;52.050;11.036;2023-09-12T06:53:16;19.70;99.90
5059;DHT22;2548;52.050;11.036;2023-09-12T06:55:46;19.80;99.90
5059;DHT22;2548;52.050;11.036;2023-09-12T06:58:14;19.90;99.90
5059;DHT22;2548;52.050;11.036;2023-09-12T07:00:43;20.00;99.90
5059;DHT22;2548;52.050;11.036;2023-09-12T07:03:10;20.10;99.90
5059;DHT22;2548;52.050;11.036;2023-09-12T07:05:41;20.20;99.90
5059;DHT22;2548;52.050;11.036;2023-09-12T07:08:09;20.30;99.90
5059;DHT22;2548;52.050;11.036;2023-09-12T07:10:36;20.40;99.90
5059;DHT22;2548;52.050;11.036;2023-09-12T07:13:04;20.50;99.90
5059;DHT22;2548;52.050;11.036;2023-09-12T07:15:31;20.60;99.90
5059;DHT22;2548;52.050;11.036;2023-09-12T07:18:00;20.70;99.90
5059;DHT22;2548;52.050;11.036;2023-09-12T07:20:28;20.80;99.90
5059;DHT22;2548;52.050;11.036;2023-09-12T07:22:58;21.00;99.90
5059;DHT22;2548;52.050;11.036;2023-09-12T07:25:28;21.10;99.90
5059;DHT22;2548;52.050;11.036;2023-09-12T07:27:56;21.20;99.90
5059;DHT22;2548;52.050;11.036;2023-09-12T07:30:23;21.20;99.90
5059;DHT22;2548;52.050;11.036;2023-09-12T07:32:54;21.20;99.90
5059;DHT22;2548;52.050;11.036;2023-09-12T07:35:23;21.20;99.90
5059;DHT22;2548;52.050;11.036;2023-09-12T07:37:50;21.30;99.90
5059;DHT22;2548;52.050;11.036;2023-09-12T07:40:21;21.30;99.90
5059;DHT22;2548;52.050;11.036;2023-09-12T07:42:48;21.40;99.90
5059;DHT22;2548;52.050;11.036;2023-09-12T07:45:25;21.50;99.90
5059;DHT22;2548;52.050;11.036;2023-09-12T07:47:53;21.60;99.90
5059;DHT22;2548;52.050;11.036;2023-09-12T07:50:20;21.70;99.90
5059;DHT22;2548;52.050;11.036;2023-09-12T07:52:49;21.80;99.90
5059;DHT22;2548;52.050;11.036;2023-09-12T07:55:17;21.90;99.90
5059;DHT22;2548;52.050;11.036;2023-09-12T07:57:44;22.00;99.90
5059;DHT22;2548;52.050;11.036;2023-09-12T08:00:19;22.30;99.90
5059;DHT22;2548;52.050;11.036;2023-09-12T08:06:35;22.60;99.90
5059;DHT22;2548;52.050;11.036;2023-09-12T08:09:04;22.70;99.90
5059;DHT22;2548;52.050;11.036;2023-09-12T08:11:31;22.90;99.90
5059;DHT22;2548;52.050;11.036;2023-09-12T08:13:59;23.00;99.90
5059;DHT22;2548;52.050;11.036;2023-09-12T08:16:26;23.10;99.90
5059;DHT22;2548;52.050;11.036;2023-09-12T08:18:54;23.10;99.90
5059;DHT22;2548;52.050;11.036;2023-09-12T08:21:24;23.10;99.90
5059;DHT22;2548;52.050;11.036;2023-09-12T08:23:54;23.20;99.90
5059;DHT22;2548;52.050;11.036;2023-09-12T08:26:23;23.30;99.90
5059;DHT22;2548;52.050;11.036;2023-09-12T08:28:59;23.20;99.90
5059;DHT22;2548;52.050;11.036;2023-09-12T08:31:26;23.30;99.90
5059;DHT22;2548;52.050;11.036;2023-09-12T08:33:54;23.30;99.90
5059;DHT22;2548;52.050;11.036;2023-09-12T08:36:24;23.40;99.90
5059;DHT22;2548;52.050;11.036;2023-09-12T08:38:54;23.30;99.90
5059;DHT22;2548;52.050;11.036;2023-09-12T08:41:23;23.20;99.90
5059;DHT22;2548;52.050;11.036;2023-09-12T08:43:53;23.20;99.90
5059;DHT22;2548;52.050;11.036;2023-09-12T08:46:22;23.30;99.90
5059;DHT22;2548;52.050;11.036;2023-09-12T08:48:50;23.40;99.90
5059;DHT22;2548;52.050;11.036;2023-09-12T08:51:18;23.30;99.90
5059;DHT22;2548;52.050;11.036;2023-09-12T08:53:46;23.40;99.90
5059;DHT22;2548;52.050;11.036;2023-09-12T08:56:16;23.60;99.90
5059;DHT22;2548;52.050;11.036;2023-09-12T08:59:03;23.80;99.90
5059;DHT22;2548;52.050;11.036;2023-09-12T09:01:31;24.10;99.90
5059;DHT22;2548;52.050;11.036;2023-09-12T09:04:01;24.40;99.90
5059;DHT22;2548;52.050;11.036;2023-09-12T09:06:32;24.40;99.90
5059;DHT22;2548;52.050;11.036;2023-09-12T09:09:06;24.50;99.90
5059;DHT22;2548;52.050;11.036;2023-09-12T09:11:37;24.50;99.90
5059;DHT22;2548;52.050;11.036;2023-09-12T09:14:06;24.60;99.90
5059;DHT22;2548;52.050;11.036;2023-09-12T09:16:33;24.60;99.90
5059;DHT22;2548;52.050;11.036;2023-09-12T09:19:03;24.70;99.90
5059;DHT22;2548;52.050;11.036;2023-09-12T09:21:36;24.80;99.90
5059;DHT22;2548;52.050;11.036;2023-09-12T09:24:08;24.80;99.90
5059;DHT22;2548;52.050;11.036;2023-09-12T09:26:43;24.90;99.90
5059;DHT22;2548;52.050;11.036;2023-09-12T09:29:16;24.90;99.90
5059;DHT22;2548;52.050;11.036;2023-09-12T09:31:52;24.90;99.90
5059;DHT22;2548;52.050;11.036;2023-09-12T09:34:22;24.90;99.90
5059;DHT22;2548;52.050;11.036;2023-09-12T09:36:51;25.00;99.90
5059;DHT22;2548;52.050;11.036;2023-09-12T09:39:20;25.00;99.90
5059;DHT22;2548;52.050;11.036;2023-09-12T09:41:54;25.00;99.90
5059;DHT22;2548;52.050;11.036;2023-09-12T09:44:25;25.00;99.90
5059;DHT22;2548;52.050;11.036;2023-09-12T09:46:59;24.90;99.90
5059;DHT22;2548;52.050;11.036;2023-09-12T09:49:31;25.00;99.90
5059;DHT22;2548;52.050;11.036;2023-09-12T09:52:03;25.00;99.90
5059;DHT22;2548;52.050;11.036;2023-09-12T09:54:43;25.10;99.90
5059;DHT22;2548;52.050;11.036;2023-09-12T09:57:20;25.10;99.90
5059;DHT22;2548;52.050;11.036;2023-09-12T09:59:50;25.20;99.90
5059;DHT22;2548;52.050;11.036;2023-09-12T10:02:22;25.10;99.90
5059;DHT22;2548;52.050;11.036;2023-09-12T10:04:56;25.20;99.90
5059;DHT22;2548;52.050;11.036;2023-09-12T10:07:25;25.10;99.90
5059;DHT22;2548;52.050;11.036;2023-09-12T10:09:57;25.20;99.90
5059;DHT22;2548;52.050;11.036;2023-09-12T10:12:25;25.20;99.90
5059;DHT22;2548;52.050;11.036;2023-09-12T10:15:01;25.10;99.90
5059;DHT22;2548;52.050;11.036;2023-09-12T10:17:34;25.20;99.90
5059;DHT22;2548;52.050;11.036;2023-09-12T10:20:07;25.30;99.90
5059;DHT22;2548;52.050;11.036;2023-09-12T10:22:40;25.40;99.90
5059;DHT22;2548;52.050;11.036;2023-09-12T10:25:13;25.60;99.90
5059;DHT22;2548;52.050;11.036;2023-09-12T10:27:44;25.90;99.90
5059;DHT22;2548;52.050;11.036;2023-09-12T10:30:21;26.00;99.90
5059;DHT22;2548;52.050;11.036;2023-09-12T10:32:58;26.00;99.90
5059;DHT22;2548;52.050;11.036;2023-09-12T10:35:28;26.00;99.90
5059;DHT22;2548;52.050;11.036;2023-09-12T10:37:59;26.00;99.90
5059;DHT22;2548;52.050;11.036;2023-09-12T10:40:31;26.20;99.90
5059;DHT22;2548;52.050;11.036;2023-09-12T10:43:00;26.50;99.90
5059;DHT22;2548;52.050;11.036;2023-09-12T10:45:31;26.60;99.90
5059;DHT22;2548;52.050;11.036;2023-09-12T10:48:02;26.60;99.90
5059;DHT22;2548;52.050;11.036;2023-09-12T10:50:29;26.60;99.90
5059;DHT22;2548;52.050;11.036;2023-09-12T10:53:16;26.70;99.90
5059;DHT22;2548;52.050;11.036;2023-09-12T10:56:01;26.80;99.90
5059;DHT22;2548;52.050;11.036;2023-09-12T10:59:14;27.00;99.90
5059;DHT22;2548;52.050;11.036;2023-09-12T11:01:49;26.80;99.90
5059;DHT22;2548;52.050;11.036;2023-09-12T11:04:33;26.80;99.90
5059;DHT22;2548;52.050;11.036;2023-09-12T11:07:01;26.80;99.90
5059;DHT22;2548;52.050;11.036;2023-09-12T11:09:28;26.80;99.90
5059;DHT22;2548;52.050;11.036;2023-09-12T11:12:02;26.80;99.90
5059;DHT22;2548;52.050;11.036;2023-09-12T11:15:03;26.90;99.90
5059;DHT22;2548;52.050;11.036;2023-09-12T11:17:37;27.00;99.90
5059;DHT22;2548;52.050;11.036;2023-09-12T11:20:05;26.90;99.90
5059;DHT22;2548;52.050;11.036;2023-09-12T11:22:37;27.00;99.90
5059;DHT22;2548;52.050;11.036;2023-09-12T11:25:23;27.10;99.90
5059;DHT22;2548;52.050;11.036;2023-09-12T11:28:04;27.00;99.90
5059;DHT22;2548;52.050;11.036;2023-09-12T11:30:37;26.90;99.90
5059;DHT22;2548;52.050;11.036;2023-09-12T11:33:45;26.90;99.90
5059;DHT22;2548;52.050;11.036;2023-09-12T11:36:24;26.90;99.90
5059;DHT22;2548;52.050;11.036;2023-09-12T11:38:52;27.00;99.90
5059;DHT22;2548;52.050;11.036;2023-09-12T11:41:40;27.20;99.90
5059;DHT22;2548;52.050;11.036;2023-09-12T11:44:10;27.40;99.90
5059;DHT22;2548;52.050;11.036;2023-09-12T11:46:38;27.40;99.90
5059;DHT22;2548;52.050;11.036;2023-09-12T11:49:11;27.40;99.90
5059;DHT22;2548;52.050;11.036;2023-09-12T11:51:49;27.50;99.90
5059;DHT22;2548;52.050;11.036;2023-09-12T11:54:25;27.30;99.90
5059;DHT22;2548;52.050;11.036;2023-09-12T11:56:53;27.30;99.90
5059;DHT22;2548;52.050;11.036;2023-09-12T11:59:26;27.20;99.90
5059;DHT22;2548;52.050;11.036;2023-09-12T12:01:54;27.20;99.90
5059;DHT22;2548;52.050;11.036;2023-09-12T12:04:29;27.30;99.90
5059;DHT22;2548;52.050;11.036;2023-09-12T12:06:57;27.20;99.90
5059;DHT22;2548;52.050;11.036;2023-09-12T12:09:24;27.20;99.90
5059;DHT22;2548;52.050;11.036;2023-09-12T12:11:52;27.10;99.90
5059;DHT22;2548;52.050;11.036;2023-09-12T12:14:27;26.80;99.90
5059;DHT22;2548;52.050;11.036;2023-09-12T12:16:54;26.60;99.90
5059;DHT22;2548;52.050;11.036;2023-09-12T12:19:22;26.70;99.90
5059;DHT22;2548;52.050;11.036;2023-09-12T12:21:58;26.80;99.90
5059;DHT22;2548;52.050;11.036;2023-09-12T12:24:44;27.00;99.90
5059;DHT22;2548;52.050;11.036;2023-09-12T12:27:17;27.20;99.90
5059;DHT22;2548;52.050;11.036;2023-09-12T12:29:45;27.30;99.90
5059;DHT22;2548;52.050;11.036;2023-09-12T12:32:15;27.30;99.90
5059;DHT22;2548;52.050;11.036;2023-09-12T12:34:48;27.40;99.90
5059;DHT22;2548;52.050;11.036;2023-09-12T12:37:19;27.50;99.90
5059;DHT22;2548;52.050;11.036;2023-09-12T12:39:47;27.50;99.90
5059;DHT22;2548;52.050;11.036;2023-09-12T12:42:17;27.60;99.90
5059;DHT22;2548;52.050;11.036;2023-09-12T12:44:55;27.60;99.90
5059;DHT22;2548;52.050;11.036;2023-09-12T12:47:22;27.60;99.90
5059;DHT22;2548;52.050;11.036;2023-09-12T12:49:51;27.60;99.90
5059;DHT22;2548;52.050;11.036;2023-09-12T12:52:24;27.80;99.90
5059;DHT22;2548;52.050;11.036;2023-09-12T12:55:03;28.00;99.90
5059;DHT22;2548;52.050;11.036;2023-09-12T12:57:36;28.10;99.90
5059;DHT22;2548;52.050;11.036;2023-09-12T13:00:07;28.30;99.90
5059;DHT22;2548;52.050;11.036;2023-09-12T13:02:40;28.10;99.90
5059;DHT22;2548;52.050;11.036;2023-09-12T13:05:26;27.90;99.90
5059;DHT22;2548;52.050;11.036;2023-09-12T13:07:55;27.90;99.90
5059;DHT22;2548;52.050;11.036;2023-09-12T13:10:23;27.80;99.90
5059;DHT22;2548;52.050;11.036;2023-09-12T13:12:53;27.80;99.90
5059;DHT22;2548;52.050;11.036;2023-09-12T13:15:21;27.90;99.90
5059;DHT22;2548;52.050;11.036;2023-09-12T13:17:48;28.00;99.90
5059;DHT22;2548;52.050;11.036;2023-09-12T13:20:19;28.00;99.90
5059;DHT22;2548;52.050;11.036;2023-09-12T13:22:46;27.80;99.90
5059;DHT22;2548;52.050;11.036;2023-09-12T13:25:18;27.60;99.90
5059;DHT22;2548;52.050;11.036;2023-09-12T13:27:47;27.50;99.90
5059;DHT22;2548;52.050;11.036;2023-09-12T13:30:17;27.60;99.90
5059;DHT22;2548;52.050;11.036;2023-09-12T13:32:44;27.70;99.90
5059;DHT22;2548;52.050;11.036;2023-09-12T13:35:12;27.90;99.90
5059;DHT22;2548;52.050;11.036;2023-09-12T13:37:40;27.70;99.90
5059;DHT22;2548;52.050;11.036;2023-09-12T13:40:08;27.70;99.90
5059;DHT22;2548;52.050;11.036;2023-09-12T13:42:38;27.70;99.90
5059;DHT22;2548;52.050;11.036;2023-09-12T13:45:08;27.50;99.90
5059;DHT22;2548;52.050;11.036;2023-09-12T13:47:37;27.50;99.90
5059;DHT22;2548;52.050;11.036;2023-09-12T13:50:05;27.50;99.90
5059;DHT22;2548;52.050;11.036;2023-09-12T13:52:33;27.60;99.90
5059;DHT22;2548;52.050;11.036;2023-09-12T13:55:01;27.70;99.90
5059;DHT22;2548;52.050;11.036;2023-09-12T13:57:29;27.60;99.90
5059;DHT22;2548;52.050;11.036;2023-09-12T13:59:59;27.40;99.90
5059;DHT22;2548;52.050;11.036;2023-09-12T14:02:26;27.20;99.90
5059;DHT22;2548;52.050;11.036;2023-09-12T14:04:54;26.90;99.90
5059;DHT22;2548;52.050;11.036;2023-09-12T14:07:22;26.70;99.90
5059;DHT22;2548;52.050;11.036;2023-09-12T14:09:49;26.60;99.90
5059;DHT22;2548;52.050;11.036;2023-09-12T14:12:21;26.80;99.90
5059;DHT22;2548;52.050;11.036;2023-09-12T14:14:50;27.10;99.90
5059;DHT22;2548;52.050;11.036;2023-09-12T14:17:19;27.40;99.90
5059;DHT22;2548;52.050;11.036;2023-09-12T14:19:50;27.40;99.90
5059;DHT22;2548;52.050;11.036;2023-09-12T14:22:19;27.30;99.90
5059;DHT22;2548;52.050;11.036;2023-09-12T14:24:48;27.30;99.90
5059;DHT22;2548;52.050;11.036;2023-09-12T14:27:15;27.40;99.90
5059;DHT22;2548;52.050;11.036;2023-09-12T14:29:43;27.40;99.90
5059;DHT22;2548;52.050;11.036;2023-09-12T14:32:20;27.40;99.90
5059;DHT22;2548;52.050;11.036;2023-09-12T14:34:47;27.40;99.90
5059;DHT22;2548;52.050;11.036;2023-09-12T14:37:15;27.50;99.90
5059;DHT22;2548;52.050;11.036;2023-09-12T14:39:43;27.30;99.90
5059;DHT22;2548;52.050;11.036;2023-09-12T14:42:13;27.30;99.90
5059;DHT22;2548;52.050;11.036;2023-09-12T14:44:41;27.20;99.90
5059;DHT22;2548;52.050;11.036;2023-09-12T14:47:12;27.10;99.90
5059;DHT22;2548;52.050;11.036;2023-09-12T14:49:51;27.10;99.90
5059;DHT22;2548;52.050;11.036;2023-09-12T14:52:20;27.00;99.90
5059;DHT22;2548;52.050;11.036;2023-09-12T14:54:47;27.00;99.90
5059;DHT22;2548;52.050;11.036;2023-09-12T14:57:15;27.00;99.90
5059;DHT22;2548;52.050;11.036;2023-09-12T14:59:46;26.90;99.90
5059;DHT22;2548;52.050;11.036;2023-09-12T15:02:13;26.80;99.90
5059;DHT22;2548;52.050;11.036;2023-09-12T15:04:41;26.90;99.90
5059;DHT22;2548;52.050;11.036;2023-09-12T15:07:13;26.90;99.90
5059;DHT22;2548;52.050;11.036;2023-09-12T15:09:43;26.90;99.90
5059;DHT22;2548;52.050;11.036;2023-09-12T15:12:11;26.90;99.90
5059;DHT22;2548;52.050;11.036;2023-09-12T15:14:39;26.80;99.90
5059;DHT22;2548;52.050;11.036;2023-09-12T15:17:14;26.70;99.90
5059;DHT22;2548;52.050;11.036;2023-09-12T15:19:44;26.60;99.90
5059;DHT22;2548;52.050;11.036;2023-09-12T15:22:32;26.50;99.90
5059;DHT22;2548;52.050;11.036;2023-09-12T15:25:01;26.50;99.90
5059;DHT22;2548;52.050;11.036;2023-09-12T15:27:29;26.50;99.90
5059;DHT22;2548;52.050;11.036;2023-09-12T15:30:01;26.50;99.90
5059;DHT22;2548;52.050;11.036;2023-09-12T15:32:28;26.40;99.90
5059;DHT22;2548;52.050;11.036;2023-09-12T15:34:59;26.50;99.90
5059;DHT22;2548;52.050;11.036;2023-09-12T15:52:52;26.30;99.90
5059;DHT22;2548;52.050;11.036;2023-09-12T15:55:21;26.40;99.90
5059;DHT22;2548;52.050;11.036;2023-09-12T15:57:51;26.30;99.90
5059;DHT22;2548;52.050;11.036;2023-09-12T16:00:20;26.30;99.90
5059;DHT22;2548;52.050;11.036;2023-09-12T16:02:53;26.30;99.90
5059;DHT22;2548;52.050;11.036;2023-09-12T16:05:23;26.30;99.90
5059;DHT22;2548;52.050;11.036;2023-09-12T16:07:52;26.20;99.90
5059;DHT22;2548;52.050;11.036;2023-09-12T16:10:20;26.20;99.90
5059;DHT22;2548;52.050;11.036;2023-09-12T16:12:47;26.10;99.90
5059;DHT22;2548;52.050;11.036;2023-09-12T16:15:15;26.00;99.90
5059;DHT22;2548;52.050;11.036;2023-09-12T16:17:46;26.00;99.90
5059;DHT22;2548;52.050;11.036;2023-09-12T16:20:16;25.90;99.90
5059;DHT22;2548;52.050;11.036;2023-09-12T16:22:44;25.70;99.90
5059;DHT22;2548;52.050;11.036;2023-09-12T16:25:16;25.70;99.90